createdAt,value
2022-08-24T00:00:22.904Z,93.95
2022-08-24T00:01:25.255Z,93.94
2022-08-24T00:02:27.213Z,94.13
2022-08-24T00:03:34.149Z,95.02
2022-08-24T00:04:36.823Z,96.80
2022-08-24T00:05:38.412Z,97.75
2022-08-24T00:06:40.039Z,98.28
2022-08-24T00:07:41.869Z,98.01
2022-08-24T00:08:44.810Z,98.38
2022-08-24T00:09:49.983Z,99.04
2022-08-24T00:10:52.689Z,99.68
2022-08-24T00:11:54.388Z,100.00
2022-08-24T00:12:55.958Z,100.00
2022-08-24T00:13:57.668Z,100.00
2022-08-24T00:15:00.095Z,100.00
2022-08-24T00:16:02.716Z,100.00
2022-08-24T00:17:05.060Z,100.00
2022-08-24T00:18:07.195Z,100.00
2022-08-24T00:19:09.047Z,100.00
2022-08-24T00:20:12.393Z,100.00
2022-08-24T00:21:14.335Z,100.00
2022-08-24T00:22:16.100Z,100.00
2022-08-24T00:23:17.659Z,100.00
2022-08-24T00:24:20.042Z,100.00
2022-08-24T00:25:22.008Z,100.00
2022-08-24T00:26:29.063Z,100.00
2022-08-24T00:27:31.453Z,100.00
2022-08-24T00:28:33.157Z,100.00
2022-08-24T00:29:35.373Z,100.00
2022-08-24T00:30:37.105Z,100.00
2022-08-24T00:31:39.183Z,100.00
2022-08-24T00:32:41.908Z,100.00
2022-08-24T00:33:43.596Z,100.00
2022-08-24T00:34:58.114Z,100.00
2022-08-24T00:36:01.458Z,100.00
2022-08-24T00:37:04.027Z,100.00
2022-08-24T00:38:05.923Z,100.00
2022-08-24T00:39:08.763Z,100.00
2022-08-24T00:40:17.549Z,100.00
2022-08-24T00:41:19.269Z,100.00
2022-08-24T00:42:20.966Z,100.00
2022-08-24T00:43:25.633Z,100.00
2022-08-24T00:44:27.254Z,100.00
2022-08-24T00:45:29.686Z,100.00
2022-08-24T00:46:44.415Z,100.00
2022-08-24T00:47:56.888Z,100.00
2022-08-24T00:49:08.014Z,100.00
2022-08-24T00:50:14.319Z,100.00
2022-08-24T00:51:26.183Z,100.00
2022-08-24T00:52:33.404Z,100.00
2022-08-24T00:53:40.155Z,100.00
2022-08-24T00:54:53.276Z,100.00
2022-08-24T00:55:58.342Z,100.00
2022-08-24T00:57:04.397Z,100.00
2022-08-24T00:58:17.132Z,100.00
2022-08-24T00:59:37.078Z,100.00
2022-08-24T01:00:49.297Z,100.00
2022-08-24T01:01:52.361Z,100.00
2022-08-24T01:02:58.691Z,100.00
2022-08-24T01:04:01.469Z,100.00
2022-08-24T01:05:06.985Z,100.00
2022-08-24T01:06:09.661Z,100.00
2022-08-24T01:07:11.832Z,100.00
2022-08-24T01:09:32.585Z,99.22
2022-08-24T01:10:41.675Z,98.75
2022-08-24T01:11:43.399Z,98.45
2022-08-24T01:13:01.103Z,98.54
2022-08-24T01:14:04.282Z,97.59
2022-08-24T01:15:09.277Z,96.73
2022-08-24T01:16:13.427Z,97.31
2022-08-24T01:17:39.197Z,96.75
2022-08-24T01:18:51.378Z,96.26
2022-08-24T01:19:57.181Z,96.44
2022-08-24T01:21:22.461Z,97.40
2022-08-24T01:22:42.974Z,98.21
2022-08-24T01:23:56.104Z,97.24
2022-08-24T01:24:57.699Z,96.99
2022-08-24T01:26:00.487Z,96.31
2022-08-24T01:27:08.461Z,95.38
2022-08-24T01:28:16.673Z,95.15
2022-08-24T01:29:27.680Z,94.54
2022-08-24T01:30:30.494Z,94.13
2022-08-24T01:31:37.801Z,93.86
2022-08-24T01:32:40.762Z,93.91
2022-08-24T01:33:42.605Z,93.53
2022-08-24T01:34:44.352Z,93.71
2022-08-24T01:35:46.636Z,93.54
2022-08-24T01:36:51.803Z,93.43
2022-08-24T01:37:56.026Z,93.53
2022-08-24T01:39:02.281Z,93.75
2022-08-24T01:40:07.416Z,93.99
2022-08-24T01:41:09.104Z,94.55
2022-08-24T01:42:17.236Z,94.56
2022-08-24T01:43:18.868Z,94.28
2022-08-24T01:44:22.744Z,94.23
2022-08-24T01:45:24.332Z,94.04
2022-08-24T01:46:26.750Z,93.79
2022-08-24T01:47:29.170Z,93.79
2022-08-24T01:48:31.482Z,93.22
2022-08-24T01:49:36.970Z,92.64
2022-08-24T01:50:38.659Z,92.11
2022-08-24T01:51:42.491Z,91.94
2022-08-24T01:53:04.446Z,91.79
2022-08-24T01:54:07.680Z,90.78
2022-08-24T01:55:12.014Z,90.04
2022-08-24T01:56:13.675Z,90.41
2022-08-24T01:57:16.337Z,90.36
2022-08-24T01:58:18.876Z,90.25
2022-08-24T01:59:20.928Z,89.84
2022-08-24T02:00:22.790Z,90.49
2022-08-24T02:01:25.699Z,90.84
2022-08-24T02:02:31.137Z,90.90
2022-08-24T02:03:32.762Z,90.60
2022-08-24T02:04:36.327Z,90.47
2022-08-24T02:05:38.113Z,90.46
2022-08-24T02:06:39.810Z,89.86
2022-08-24T02:07:41.763Z,89.66
2022-08-24T02:08:43.355Z,89.93
2022-08-24T02:09:45.149Z,89.40
2022-08-24T02:10:50.950Z,89.39
2022-08-24T02:11:58.615Z,88.97
2022-08-24T02:13:00.440Z,88.90
2022-08-24T02:14:02.082Z,88.98
2022-08-24T02:15:06.310Z,89.31
2022-08-24T02:16:08.152Z,89.36
2022-08-24T02:17:10.307Z,89.00
2022-08-24T02:18:15.675Z,89.12
2022-08-24T02:19:17.451Z,89.43
2022-08-24T02:20:21.576Z,89.28
2022-08-24T02:21:24.175Z,89.39
2022-08-24T02:22:25.915Z,89.39
2022-08-24T02:23:28.816Z,89.57
2022-08-24T02:24:30.563Z,89.34
2022-08-24T02:25:32.779Z,89.94
2022-08-24T02:26:34.385Z,90.23
2022-08-24T02:27:36.006Z,89.22
2022-08-24T02:28:38.981Z,89.63
2022-08-24T02:29:40.583Z,90.13
2022-08-24T02:30:42.445Z,91.58
2022-08-24T02:31:44.108Z,92.38
2022-08-24T02:32:45.884Z,94.58
2022-08-24T02:33:47.540Z,95.15
2022-08-24T02:34:49.187Z,95.40
2022-08-24T02:35:54.407Z,97.01
2022-08-24T02:36:55.972Z,98.31
2022-08-24T02:37:58.625Z,98.49
2022-08-24T02:39:00.275Z,99.51
2022-08-24T02:40:02.244Z,99.91
2022-08-24T02:41:04.669Z,100.00
2022-08-24T02:42:06.559Z,100.00
2022-08-24T02:43:08.135Z,100.00
2022-08-24T02:44:09.705Z,100.00
2022-08-24T02:45:11.557Z,100.00
2022-08-24T02:46:21.207Z,100.00
2022-08-24T02:47:22.861Z,100.00
2022-08-24T02:48:40.052Z,100.00
2022-08-24T02:49:41.681Z,100.00
2022-08-24T02:50:46.455Z,100.00
2022-08-24T02:51:48.347Z,100.00
2022-08-24T02:52:50.307Z,100.00
2022-08-24T02:53:52.201Z,100.00
2022-08-24T02:54:53.764Z,100.00
2022-08-24T02:55:55.359Z,100.00
2022-08-24T02:56:56.945Z,100.00
2022-08-24T02:57:58.674Z,100.00
2022-08-24T02:59:01.352Z,100.00
2022-08-24T03:00:10.103Z,100.00
2022-08-24T03:01:14.364Z,100.00
2022-08-24T03:02:19.546Z,100.00
2022-08-24T03:03:21.131Z,100.00
2022-08-24T03:04:22.800Z,100.00
2022-08-24T03:05:25.998Z,100.00
2022-08-24T03:06:27.589Z,100.00
2022-08-24T03:07:29.193Z,100.00
2022-08-24T03:08:30.791Z,100.00
2022-08-24T03:09:36.282Z,100.00
2022-08-24T03:10:37.939Z,99.95
2022-08-24T03:11:40.414Z,99.68
2022-08-24T03:12:47.604Z,99.38
2022-08-24T03:13:49.306Z,99.69
2022-08-24T03:14:50.896Z,99.60
2022-08-24T03:15:52.631Z,99.71
2022-08-24T03:16:54.341Z,100.00
2022-08-24T03:17:56.323Z,99.73
2022-08-24T03:18:58.023Z,99.68
2022-08-24T03:20:00.798Z,99.94
2022-08-24T03:21:03.774Z,99.93
2022-08-24T03:22:05.541Z,98.79
2022-08-24T03:23:07.174Z,99.39
2022-08-24T03:24:09.460Z,99.28
2022-08-24T03:25:11.447Z,98.88
2022-08-24T03:26:13.701Z,99.30
2022-08-24T03:27:15.426Z,98.70
2022-08-24T03:28:17.344Z,98.43
2022-08-24T03:29:20.423Z,97.99
2022-08-24T03:30:25.738Z,97.92
2022-08-24T03:31:27.424Z,97.64
2022-08-24T03:32:29.029Z,97.45
2022-08-24T03:33:31.101Z,97.64
2022-08-24T03:34:32.695Z,97.70
2022-08-24T03:35:34.270Z,97.44
2022-08-24T03:36:35.831Z,97.23
2022-08-24T03:37:37.991Z,97.20
2022-08-24T03:38:39.672Z,97.57
2022-08-24T03:39:41.356Z,97.28
2022-08-24T03:40:43.136Z,96.27
2022-08-24T03:41:45.984Z,96.42
2022-08-24T03:42:47.584Z,96.32
2022-08-24T03:43:51.389Z,96.77
2022-08-24T03:44:53.034Z,96.85
2022-08-24T03:45:54.652Z,97.36
2022-08-24T03:46:56.514Z,97.81
2022-08-24T03:47:58.545Z,98.80
2022-08-24T03:49:00.171Z,98.93
2022-08-24T03:50:02.034Z,98.54
2022-08-24T03:51:03.851Z,98.93
2022-08-24T03:52:06.852Z,99.07
2022-08-24T03:53:08.424Z,97.81
2022-08-24T03:54:11.603Z,97.46
2022-08-24T03:55:13.833Z,97.52
2022-08-24T03:56:15.577Z,97.42
2022-08-24T03:57:17.159Z,97.44
2022-08-24T03:58:18.965Z,97.44
2022-08-24T03:59:20.736Z,97.35
2022-08-24T04:00:22.438Z,97.45
2022-08-24T04:01:24.673Z,96.92
2022-08-24T04:02:30.106Z,96.98
2022-08-24T04:03:40.356Z,96.81
2022-08-24T04:04:42.003Z,96.75
2022-08-24T04:05:45.863Z,96.30
2022-08-24T04:06:49.245Z,95.73
2022-08-24T04:07:50.861Z,95.68
2022-08-24T04:08:53.219Z,96.05
2022-08-24T04:09:54.816Z,95.91
2022-08-24T04:10:56.449Z,95.83
2022-08-24T04:11:58.125Z,95.03
2022-08-24T04:13:01.585Z,93.98
2022-08-24T04:14:04.221Z,93.77
2022-08-24T04:15:07.101Z,94.33
2022-08-24T04:16:12.862Z,94.81
2022-08-24T04:17:17.802Z,94.79
2022-08-24T04:18:19.932Z,94.15
2022-08-24T04:19:21.825Z,94.23
2022-08-24T04:20:24.170Z,94.30
2022-08-24T04:21:35.452Z,94.01
2022-08-24T04:22:37.325Z,94.08
2022-08-24T04:23:46.683Z,93.56
2022-08-24T04:24:49.584Z,93.16
2022-08-24T04:25:51.157Z,92.57
2022-08-24T04:26:52.818Z,92.84
2022-08-24T04:27:54.852Z,93.07
2022-08-24T04:28:57.747Z,93.06
2022-08-24T04:30:00.267Z,92.57
2022-08-24T04:31:05.515Z,92.99
2022-08-24T04:32:07.749Z,93.23
2022-08-24T04:33:13.846Z,93.48
2022-08-24T04:34:16.632Z,94.41
2022-08-24T04:35:18.305Z,94.81
2022-08-24T04:36:21.548Z,93.79
2022-08-24T04:37:29.113Z,94.11
2022-08-24T04:38:31.629Z,94.35
2022-08-24T04:39:33.721Z,93.86
2022-08-24T04:40:35.728Z,93.26
2022-08-24T04:41:38.121Z,93.41
2022-08-24T04:42:40.650Z,93.54
2022-08-24T04:43:45.166Z,93.76
2022-08-24T04:44:47.841Z,93.91
2022-08-24T04:45:51.417Z,94.02
2022-08-24T04:46:53.320Z,93.88
2022-08-24T04:47:55.161Z,93.48
2022-08-24T04:48:58.686Z,94.66
2022-08-24T04:50:00.343Z,94.44
2022-08-24T04:51:04.675Z,94.84
2022-08-24T04:52:08.296Z,94.95
2022-08-24T04:53:11.953Z,95.37
2022-08-24T04:54:13.657Z,94.54
2022-08-24T04:55:15.648Z,95.04
2022-08-24T04:56:24.876Z,94.13
2022-08-24T04:57:26.524Z,94.07
2022-08-24T04:58:30.146Z,93.71
2022-08-24T04:59:31.734Z,93.95
2022-08-24T05:00:33.583Z,93.82
2022-08-24T05:01:35.362Z,93.36
2022-08-24T05:02:44.724Z,92.96
2022-08-24T05:03:49.220Z,92.83
2022-08-24T05:04:50.824Z,93.05
2022-08-24T05:05:52.948Z,92.99
2022-08-24T05:06:54.594Z,92.12
2022-08-24T05:07:56.764Z,91.99
2022-08-24T05:09:00.391Z,91.81
2022-08-24T05:10:02.640Z,92.36
2022-08-24T05:11:08.639Z,91.98
2022-08-24T05:12:11.811Z,89.29
2022-08-24T05:13:14.787Z,88.50
2022-08-24T05:14:16.484Z,87.12
2022-08-24T05:15:18.241Z,87.57
2022-08-24T05:16:20.118Z,87.97
2022-08-24T05:17:21.735Z,88.10
2022-08-24T05:18:23.296Z,87.59
2022-08-24T05:19:25.102Z,88.76
2022-08-24T05:20:27.288Z,88.80
2022-08-24T05:21:30.877Z,87.53
2022-08-24T05:22:32.454Z,87.76
2022-08-24T05:23:35.242Z,88.83
2022-08-24T05:24:36.841Z,89.53
2022-08-24T05:25:39.558Z,90.22
2022-08-24T05:26:41.273Z,90.33
2022-08-24T05:27:43.918Z,90.30
2022-08-24T05:28:45.957Z,90.14
2022-08-24T05:29:47.605Z,90.07
2022-08-24T05:30:51.112Z,89.79
2022-08-24T05:31:53.522Z,89.43
2022-08-24T05:32:55.479Z,88.78
2022-08-24T05:33:58.647Z,88.10
2022-08-24T05:35:01.693Z,87.96
2022-08-24T05:36:04.776Z,87.43
2022-08-24T05:37:06.476Z,88.60
2022-08-24T05:38:09.297Z,89.10
2022-08-24T05:39:13.577Z,89.64
2022-08-24T05:40:18.716Z,89.80
2022-08-24T05:41:20.922Z,89.94
2022-08-24T05:42:22.542Z,90.85
2022-08-24T05:43:24.436Z,91.25
2022-08-24T05:44:30.762Z,92.06
2022-08-24T05:45:32.811Z,92.35
2022-08-24T05:46:34.926Z,93.02
2022-08-24T05:47:36.933Z,92.24
2022-08-24T05:48:38.943Z,91.81
2022-08-24T05:49:41.759Z,91.89
2022-08-24T05:50:43.495Z,91.42
2022-08-24T05:51:45.103Z,90.72
2022-08-24T05:52:46.704Z,90.27
2022-08-24T05:53:48.434Z,91.28
2022-08-24T05:54:56.548Z,90.50
2022-08-24T05:55:58.183Z,89.10
2022-08-24T05:57:04.743Z,90.36
2022-08-24T05:58:06.666Z,89.82
2022-08-24T05:59:08.246Z,88.97
2022-08-24T06:00:12.285Z,88.08
2022-08-24T06:01:18.048Z,87.75
2022-08-24T06:02:20.361Z,85.96
2022-08-24T06:03:22.028Z,86.24
2022-08-24T06:04:24.062Z,85.11
2022-08-24T06:05:27.964Z,84.57
2022-08-24T06:06:29.576Z,84.43
2022-08-24T06:07:31.162Z,82.44
2022-08-24T06:08:40.635Z,82.93
2022-08-24T06:09:43.178Z,84.93
2022-08-24T06:10:47.858Z,85.46
2022-08-24T06:11:49.515Z,84.24
2022-08-24T06:12:51.351Z,83.69
2022-08-24T06:13:56.301Z,80.99
2022-08-24T06:15:00.862Z,80.18
2022-08-24T06:16:47.926Z,80.22
2022-08-24T06:17:35.695Z,80.92
2022-08-24T06:18:38.727Z,81.79
2022-08-24T06:19:40.609Z,81.22
2022-08-24T06:20:42.879Z,82.36
2022-08-24T06:21:50.807Z,82.68
2022-08-24T06:22:52.398Z,81.19
2022-08-24T06:23:54.396Z,80.59
2022-08-24T06:25:14.543Z,81.50
2022-08-24T06:26:34.962Z,79.12
2022-08-24T06:27:36.943Z,77.86
2022-08-24T06:28:38.548Z,76.75
2022-08-24T06:29:40.103Z,77.85
2022-08-24T06:30:42.936Z,78.09
2022-08-24T06:31:47.078Z,78.63
2022-08-24T06:32:48.730Z,79.47
2022-08-24T06:33:52.162Z,78.79
2022-08-24T06:34:56.779Z,78.26
2022-08-24T06:35:58.774Z,77.81
2022-08-24T06:37:01.929Z,77.02
2022-08-24T06:38:04.529Z,75.65
2022-08-24T06:39:07.080Z,75.36
2022-08-24T06:40:11.555Z,73.58
2022-08-24T06:41:13.235Z,72.78
2022-08-24T06:42:14.801Z,71.27
2022-08-24T06:43:16.834Z,71.18
2022-08-24T06:44:18.854Z,70.57
2022-08-24T06:45:22.172Z,69.86
2022-08-24T06:46:26.484Z,70.09
2022-08-24T06:47:29.871Z,70.41
2022-08-24T06:48:31.940Z,69.59
2022-08-24T06:49:33.548Z,69.99
2022-08-24T06:50:35.578Z,68.82
2022-08-24T06:51:37.149Z,68.51
2022-08-24T06:52:39.647Z,69.04
2022-08-24T06:53:41.726Z,68.20
2022-08-24T06:54:43.329Z,68.05
2022-08-24T06:56:00.566Z,66.82
2022-08-24T06:57:02.495Z,65.74
2022-08-24T06:58:04.621Z,65.43
2022-08-24T06:59:06.613Z,66.48
2022-08-24T07:00:10.347Z,68.66
2022-08-24T07:01:17.560Z,67.84
2022-08-24T07:02:19.536Z,67.98
2022-08-24T07:03:21.265Z,67.22
2022-08-24T07:04:28.004Z,67.62
2022-08-24T07:05:30.227Z,67.42
2022-08-24T07:06:31.851Z,67.01
2022-08-24T07:07:33.481Z,67.17
2022-08-24T07:08:36.030Z,67.02
2022-08-24T07:09:37.979Z,66.35
2022-08-24T07:10:39.679Z,64.23
2022-08-24T07:11:41.861Z,64.49
2022-08-24T07:12:43.467Z,64.27
2022-08-24T07:13:49.609Z,65.42
2022-08-24T07:14:51.257Z,64.86
2022-08-24T07:15:53.648Z,64.88
2022-08-24T07:16:55.547Z,63.72
2022-08-24T07:17:57.646Z,63.05
2022-08-24T07:18:59.551Z,63.84
2022-08-24T07:20:01.899Z,63.83
2022-08-24T07:21:04.155Z,62.84
2022-08-24T07:22:05.777Z,62.24
2022-08-24T07:23:07.696Z,61.05
2022-08-24T07:24:10.680Z,61.89
2022-08-24T07:25:13.175Z,62.09
2022-08-24T07:26:22.757Z,60.42
2022-08-24T07:27:24.487Z,61.29
2022-08-24T07:28:27.692Z,60.83
2022-08-24T07:29:56.506Z,61.71
2022-08-24T07:30:55.140Z,63.47
2022-08-24T07:31:57.181Z,63.43
2022-08-24T07:32:59.208Z,63.12
2022-08-24T07:34:00.828Z,62.12
2022-08-24T07:35:02.548Z,62.85
2022-08-24T07:36:04.501Z,62.75
2022-08-24T07:37:07.907Z,63.23
2022-08-24T07:38:12.543Z,63.36
2022-08-24T07:39:14.394Z,66.21
2022-08-24T07:40:17.246Z,63.92
2022-08-24T07:41:40.306Z,63.47
2022-08-24T07:42:41.604Z,62.44
2022-08-24T07:43:43.256Z,63.22
2022-08-24T07:44:44.941Z,63.39
2022-08-24T07:45:48.021Z,64.17
2022-08-24T07:46:49.867Z,62.62
2022-08-24T07:49:11.560Z,64.47
2022-08-24T07:50:15.455Z,64.48
2022-08-24T07:51:19.431Z,62.81
2022-08-24T07:52:21.303Z,62.19
2022-08-24T07:53:27.918Z,63.21
2022-08-24T07:54:34.055Z,64.37
2022-08-24T07:55:35.941Z,63.67
2022-08-24T07:56:48.005Z,64.16
2022-08-24T07:57:49.732Z,64.90
2022-08-24T07:58:54.406Z,64.75
2022-08-24T07:59:58.291Z,64.54
2022-08-24T08:00:59.938Z,64.00
2022-08-24T08:02:02.191Z,63.20
2022-08-24T08:03:05.004Z,61.82
2022-08-24T08:04:06.831Z,61.95
2022-08-24T08:05:09.084Z,62.20
2022-08-24T08:06:16.072Z,61.90
2022-08-24T08:07:18.047Z,63.19
2022-08-24T08:08:20.281Z,63.55
2022-08-24T08:09:21.948Z,65.32
2022-08-24T08:10:23.745Z,64.31
2022-08-24T08:11:25.513Z,64.00
2022-08-24T08:12:27.149Z,63.97
2022-08-24T08:13:29.986Z,65.80
2022-08-24T08:14:31.550Z,64.59
2022-08-24T08:15:33.723Z,63.12
2022-08-24T08:16:35.510Z,61.58
2022-08-24T08:17:38.679Z,62.07
2022-08-24T08:18:40.333Z,63.58
2022-08-24T08:19:43.161Z,63.61
2022-08-24T08:20:45.240Z,64.26
2022-08-24T08:22:08.435Z,62.46
2022-08-24T08:23:29.132Z,61.65
2022-08-24T08:24:30.876Z,63.12
2022-08-24T08:25:32.676Z,62.74
2022-08-24T08:26:34.277Z,63.23
2022-08-24T08:27:36.325Z,63.02
2022-08-24T08:28:38.256Z,63.91
2022-08-24T08:29:40.649Z,61.72
2022-08-24T08:30:42.640Z,63.27
2022-08-24T08:31:44.576Z,62.98
2022-08-24T08:32:46.420Z,61.09
2022-08-24T08:33:48.043Z,61.39
2022-08-24T08:34:50.158Z,61.88
2022-08-24T08:35:56.299Z,60.29
2022-08-24T08:36:59.055Z,60.26
2022-08-24T08:38:01.061Z,61.02
2022-08-24T08:39:03.564Z,61.20
2022-08-24T08:40:17.823Z,60.17
2022-08-24T08:41:37.960Z,60.91
2022-08-24T08:43:04.839Z,59.88
2022-08-24T08:44:15.531Z,59.71
2022-08-24T08:45:59.410Z,61.24
2022-08-24T08:47:06.823Z,61.43
2022-08-24T08:48:43.586Z,61.53
2022-08-24T08:50:18.781Z,61.37
2022-08-24T08:52:10.593Z,60.44
2022-08-24T08:53:33.401Z,60.50
2022-08-24T08:55:00.226Z,60.27
2022-08-24T08:56:01.879Z,59.59
2022-08-24T08:57:24.982Z,58.97
2022-08-24T08:58:59.464Z,59.40
2022-08-24T09:00:25.169Z,60.73
2022-08-24T09:01:46.988Z,60.99
2022-08-24T09:03:07.440Z,59.93
2022-08-24T09:04:21.653Z,60.36
2022-08-24T09:05:59.570Z,60.55
2022-08-24T09:07:33.081Z,60.25
2022-08-24T09:08:59.066Z,61.04
2022-08-24T09:10:33.866Z,60.83
2022-08-24T09:11:56.393Z,60.08
2022-08-24T09:13:45.751Z,60.66
2022-08-24T09:15:02.740Z,61.01
2022-08-24T09:16:12.240Z,61.52
2022-08-24T09:17:32.814Z,61.46
2022-08-24T09:18:50.761Z,60.24
2022-08-24T09:20:12.649Z,59.85
2022-08-24T09:21:39.047Z,60.92
2022-08-24T09:22:50.031Z,59.75
2022-08-24T09:24:07.688Z,60.51
2022-08-24T09:25:24.756Z,60.47
2022-08-24T09:26:33.394Z,60.38
2022-08-24T09:28:00.922Z,60.37
2022-08-24T09:30:57.717Z,60.42
2022-08-24T09:32:13.057Z,59.09
2022-08-24T09:33:41.574Z,60.79
2022-08-24T09:34:52.617Z,58.32
2022-08-24T09:36:08.524Z,58.29
2022-08-24T09:37:24.605Z,60.18
2022-08-24T09:38:47.587Z,59.31
2022-08-24T09:40:34.561Z,59.82
2022-08-24T09:42:17.485Z,58.97
2022-08-24T09:43:24.992Z,58.17
2022-08-24T09:44:44.836Z,58.14
2022-08-24T09:46:10.507Z,58.69
2022-08-24T09:47:37.473Z,59.74
2022-08-24T09:48:49.357Z,58.17
2022-08-24T09:49:59.727Z,59.43
2022-08-24T09:51:01.641Z,59.02
2022-08-24T09:52:24.767Z,59.75
2022-08-24T09:54:00.273Z,59.01
2022-08-24T09:55:08.163Z,57.74
2022-08-24T09:56:36.800Z,58.38
2022-08-24T09:57:59.801Z,58.63
2022-08-24T09:59:08.019Z,57.72
2022-08-24T10:00:34.681Z,57.52
2022-08-24T10:01:45.811Z,56.87
2022-08-24T10:03:03.097Z,56.39
2022-08-24T10:04:27.965Z,55.92
2022-08-24T10:06:00.128Z,56.01
2022-08-24T10:07:32.665Z,56.83
2022-08-24T10:08:42.918Z,57.18
2022-08-24T10:10:07.782Z,57.11
2022-08-24T10:11:31.754Z,56.24
2022-08-24T10:12:55.989Z,55.31
2022-08-24T10:14:36.831Z,54.72
2022-08-24T10:15:47.924Z,55.46
2022-08-24T10:17:43.741Z,56.03
2022-08-24T10:19:05.514Z,55.55
2022-08-24T10:20:29.488Z,55.26
2022-08-24T10:21:58.509Z,54.57
2022-08-24T10:23:18.900Z,56.50
2022-08-24T10:24:20.459Z,56.52
2022-08-24T10:25:51.570Z,56.54
2022-08-24T10:27:06.524Z,56.50
2022-08-24T10:28:13.876Z,56.84
2022-08-24T10:30:00.877Z,56.89
2022-08-24T10:31:09.729Z,56.18
2022-08-24T10:32:32.393Z,55.33
2022-08-24T10:34:04.689Z,56.10
2022-08-24T10:35:52.412Z,55.96
2022-08-24T10:37:21.593Z,54.57
2022-08-24T10:38:52.988Z,56.00
2022-08-24T10:40:32.936Z,54.77
2022-08-24T10:41:48.730Z,55.24
2022-08-24T10:43:28.533Z,55.10
2022-08-24T10:44:40.798Z,55.08
2022-08-24T10:45:54.213Z,54.88
2022-08-24T10:47:08.046Z,54.70
2022-08-24T10:48:36.061Z,54.93
2022-08-24T10:49:37.659Z,53.79
2022-08-24T10:50:49.624Z,53.84
2022-08-24T10:52:18.853Z,55.01
2022-08-24T10:53:33.974Z,55.07
2022-08-24T10:54:37.080Z,54.38
2022-08-24T10:55:39.094Z,54.10
2022-08-24T10:57:09.205Z,54.63
2022-08-24T10:58:19.546Z,53.87
2022-08-24T10:59:31.858Z,54.11
2022-08-24T11:00:33.725Z,53.79
2022-08-24T11:01:38.423Z,54.71
2022-08-24T11:02:42.879Z,53.84
2022-08-24T11:04:07.419Z,53.76
2022-08-24T11:05:13.079Z,53.51
2022-08-24T11:06:16.852Z,53.74
2022-08-24T11:07:21.691Z,53.48
2022-08-24T11:08:26.113Z,54.73
2022-08-24T11:10:17.868Z,53.67
2022-08-24T11:11:46.951Z,53.54
2022-08-24T11:12:48.704Z,53.55
2022-08-24T11:13:59.165Z,52.20
2022-08-24T11:15:23.989Z,53.46
2022-08-24T11:16:31.009Z,53.58
2022-08-24T11:17:34.786Z,53.45
2022-08-24T11:18:49.496Z,52.78
2022-08-24T11:19:52.415Z,52.94
2022-08-24T11:20:55.839Z,52.16
2022-08-24T11:22:01.943Z,52.16
2022-08-24T11:23:07.995Z,52.97
2022-08-24T11:24:18.527Z,53.11
2022-08-24T11:25:26.547Z,52.79
2022-08-24T11:26:28.947Z,52.62
2022-08-24T11:27:50.492Z,53.44
2022-08-24T11:29:01.183Z,54.91
2022-08-24T11:30:11.995Z,53.59
2022-08-24T11:31:22.689Z,53.50
2022-08-24T11:32:30.124Z,52.61
2022-08-24T11:33:44.319Z,53.61
2022-08-24T11:34:46.902Z,53.35
2022-08-24T11:35:48.493Z,52.92
2022-08-24T11:36:50.067Z,53.67
2022-08-24T11:37:57.141Z,53.81
2022-08-24T11:39:23.745Z,52.03
2022-08-24T11:40:29.749Z,52.56
2022-08-24T11:41:39.039Z,52.84
2022-08-24T11:42:58.798Z,52.14
2022-08-24T11:44:16.375Z,49.81
2022-08-24T11:45:23.907Z,52.05
2022-08-24T11:46:37.585Z,51.54
2022-08-24T11:47:50.157Z,50.97
2022-08-24T11:49:25.435Z,50.94
2022-08-24T11:50:42.213Z,51.99
2022-08-24T11:52:12.046Z,51.52
2022-08-24T11:55:26.743Z,51.77
2022-08-24T11:56:41.274Z,51.30
2022-08-24T11:58:17.433Z,51.90
2022-08-24T11:59:38.717Z,51.67
2022-08-24T12:00:54.284Z,51.57
2022-08-24T12:02:00.702Z,51.99
2022-08-24T12:03:06.280Z,51.83
2022-08-24T12:04:17.010Z,53.42
2022-08-24T12:05:21.213Z,52.39
2022-08-24T12:06:32.535Z,52.38
2022-08-24T12:07:34.545Z,51.16
2022-08-24T12:08:45.892Z,51.44
2022-08-24T12:10:09.203Z,52.75
2022-08-24T12:11:29.619Z,51.86
2022-08-24T12:12:54.626Z,52.10
2022-08-24T12:14:33.532Z,51.92
2022-08-24T12:16:03.172Z,51.88
2022-08-24T12:17:12.926Z,51.21
2022-08-24T12:18:31.063Z,51.02
2022-08-24T12:19:42.017Z,52.12
2022-08-24T12:20:49.424Z,52.40
2022-08-24T12:21:55.788Z,51.65
2022-08-24T12:23:02.652Z,51.86
2022-08-24T12:24:08.913Z,50.52
2022-08-24T12:25:42.769Z,50.15
2022-08-24T12:26:49.845Z,51.90
2022-08-24T12:27:52.422Z,51.56
2022-08-24T12:29:01.431Z,51.74
2022-08-24T12:30:07.620Z,49.95
2022-08-24T12:31:31.170Z,49.41
2022-08-24T12:32:47.920Z,49.78
2022-08-24T12:33:54.227Z,49.60
2022-08-24T12:34:59.027Z,48.93
2022-08-24T12:36:07.517Z,48.80
2022-08-24T12:37:30.577Z,50.53
2022-08-24T12:38:38.239Z,50.56
2022-08-24T12:39:54.270Z,50.08
2022-08-24T12:41:02.357Z,49.33
2022-08-24T12:42:19.046Z,49.14
2022-08-24T12:43:30.895Z,49.80
2022-08-24T12:44:45.540Z,51.34
2022-08-24T12:45:47.734Z,49.67
2022-08-24T12:46:54.408Z,50.07
2022-08-24T12:48:22.204Z,50.47
2022-08-24T12:49:27.748Z,50.43
2022-08-24T12:51:16.318Z,50.04
2022-08-24T12:52:29.688Z,50.06
2022-08-24T12:53:34.232Z,49.38
2022-08-24T12:54:43.246Z,49.87
2022-08-24T12:55:53.780Z,50.29
2022-08-24T12:57:25.887Z,50.02
2022-08-24T12:58:53.757Z,49.31
2022-08-24T13:00:04.861Z,50.44
2022-08-24T13:01:07.666Z,50.05
2022-08-24T13:02:15.236Z,49.95
2022-08-24T13:03:33.272Z,50.12
2022-08-24T13:04:50.208Z,48.57
2022-08-24T13:05:57.870Z,49.58
2022-08-24T13:07:05.610Z,49.66
2022-08-24T13:08:41.275Z,49.75
2022-08-24T13:09:57.975Z,50.61
2022-08-24T13:11:06.099Z,51.00
2022-08-24T13:12:32.951Z,51.20
2022-08-24T13:13:45.389Z,51.04
2022-08-24T13:14:51.045Z,49.79
2022-08-24T13:15:59.410Z,50.03
2022-08-24T13:17:00.968Z,49.50
2022-08-24T13:18:09.268Z,49.97
2022-08-24T13:19:23.060Z,50.18
2022-08-24T13:20:27.545Z,49.29
2022-08-24T13:22:10.738Z,49.97
2022-08-24T13:23:12.959Z,49.76
2022-08-24T13:24:43.840Z,50.63
2022-08-24T13:25:48.103Z,50.00
2022-08-24T13:26:49.690Z,50.26
2022-08-24T13:28:04.713Z,50.79
2022-08-24T13:29:07.872Z,50.64
2022-08-24T13:30:28.055Z,49.60
2022-08-24T13:31:34.995Z,49.12
2022-08-24T13:33:04.321Z,49.49
2022-08-24T13:34:05.853Z,49.78
2022-08-24T13:35:35.005Z,49.47
2022-08-24T13:37:11.241Z,50.28
2022-08-24T13:38:34.706Z,50.07
2022-08-24T13:40:02.084Z,50.60
2022-08-24T13:41:15.661Z,51.23
2022-08-24T13:42:46.814Z,49.79
2022-08-24T13:43:51.452Z,50.48
2022-08-24T13:45:18.100Z,51.29
2022-08-24T13:46:40.683Z,50.45
2022-08-24T13:47:57.971Z,50.54
2022-08-24T13:49:24.908Z,49.88
2022-08-24T13:50:59.693Z,49.89
2022-08-24T13:52:29.715Z,49.35
2022-08-24T13:53:52.673Z,49.23
2022-08-24T13:55:04.341Z,48.32
2022-08-24T13:56:18.126Z,48.41
2022-08-24T13:57:36.682Z,49.89
2022-08-24T13:58:46.985Z,49.36
2022-08-24T13:59:57.636Z,49.13
2022-08-24T14:01:18.448Z,49.60
2022-08-24T14:02:45.377Z,48.45
2022-08-24T14:04:00.095Z,49.13
2022-08-24T14:05:23.399Z,48.31
2022-08-24T14:06:36.207Z,47.79
2022-08-24T14:08:13.200Z,48.21
2022-08-24T14:09:26.171Z,48.76
2022-08-24T14:10:59.912Z,48.20
2022-08-24T14:12:12.093Z,48.96
2022-08-24T14:13:35.338Z,49.71
2022-08-24T14:14:42.932Z,48.37
2022-08-24T14:16:16.878Z,49.25
2022-08-24T14:18:03.744Z,49.83
2022-08-24T14:19:25.756Z,48.60
2022-08-24T14:20:48.438Z,49.86
2022-08-24T14:22:11.593Z,50.33
2022-08-24T14:23:46.063Z,49.17
2022-08-24T14:24:56.112Z,49.70
2022-08-24T14:26:40.949Z,49.89
2022-08-24T14:27:46.348Z,50.43
2022-08-24T14:28:48.473Z,49.98
2022-08-24T14:29:50.408Z,49.23
2022-08-24T14:31:13.731Z,50.03
2022-08-24T14:32:24.495Z,49.89
2022-08-24T14:33:33.238Z,50.46
2022-08-24T14:35:04.417Z,50.46
2022-08-24T14:36:19.223Z,51.24
2022-08-24T14:37:30.555Z,51.03
2022-08-24T14:38:46.068Z,49.91
2022-08-24T14:40:08.939Z,50.74
2022-08-24T14:41:32.075Z,50.35
2022-08-24T14:42:37.847Z,51.65
2022-08-24T14:44:13.124Z,52.01
2022-08-24T14:45:33.441Z,53.54
2022-08-24T14:47:11.302Z,54.69
2022-08-24T14:48:32.533Z,59.13
2022-08-24T14:49:36.558Z,59.29
2022-08-24T14:50:48.780Z,62.93
2022-08-24T14:52:08.384Z,66.81